Elnora, IN (47529)

6:00 PM EST en Noviembre 27, 2014 (GMT -0500)
KINSANDB2 | Change Station
CLOSE
Current Station
Estación meteorológica personal
Location: Sandborn, IN
Altura: 479 ft
Estaciones meteorológicas cercanas

Alt 479 ft 38.90 °N, 87.18 °W | Updated 9 minutes ago

Nublado
Nublado
29.5 ° F
Sensación térmica 25 ° F
N
4.0
Viento Variable Viento desde ONO
Gusts 8.0 mph

Hoy
Alta -- | Baja -- ° F
--% Posibilidad de precipitaciones
Ayer
Alta -- | Baja -- ° F
Precip. -- pul
7:43 AM 5:27 PM
Creciente, 33% visible
Presión 30.44 pul
Visibilidad 2.5 Millas
Nubes Nubes dispersas 1800 ft
Muy nublado 2400 ft
Nublado 4300 ft
Vientos helados 25 ° F
Punto de rocío 26 ° F
Humedad 88%
Precipitaciones 0.00 pul
Espesor de la nieve No disponible.
UV 0 de una escala de 12
Polen .30 de una escala de 12
Calidad del aire No disponible.
Flu Activity No disponible.
METAR KDCY 272235Z AUTO 29009KT 2 1/2SM -SN SCT018 BKN024 OVC043 M02/M03 A3044 RMK AO2 T10201032

More Conditions Fewer Conditions

Presión 30.44 pul
Visibilidad 2.5 Millas
Nubes Nubes dispersas 1800 ft
Muy nublado 2400 ft
Nublado 4300 ft
Vientos helados 25 ° F
Punto de rocío 26 ° F
Humedad 88%
Precipitaciones 0.00 pul
Espesor de la nieve No disponible.
UV 0 de una escala de 12
Polen .30 de una escala de 12
Calidad del aire No disponible.
Flu Activity No disponible.
METAR KDCY 272235Z AUTO 29009KT 2 1/2SM -SN SCT018 BKN024 OVC043 M02/M03 A3044 RMK AO2 T10201032

More Conditions Fewer Conditions

10-Day Weather Forecast

Almanac

Astronomía

Nov. 27, 2014 Salida Puesta
Hora real
Crepúsculo civil
Crepúsculo náutico
Crepúsculo astronómico
Luna
Horas de luz
Horas de luz
Tomorrow will be .
, % of the Moon is Illuminated

Extremos de hoy

Máximos del estado Bajos del estado

Community

WunderPhotos

Upload Photos

1,774,134 ¡fotos cargadas!

WunderBlogs® & News

Nearby

Calidad del aire

  Calidad del aire Índice AQ Contaminante
Not available.

Grosos de nieve

Estación Profundido Altura

Actividad de terremotos

Ciudad Distance Mag. Tiempo y dato
Magnitud mínima muestra es 2,5.

Temperaturas de aguas costeras

Lugar Temperatura

Estaciones meteorológicas cercanas